Time;durP1;ratioP1;P1;durP2;ratioP2;P2;SDS_P1;SDS_P2;PMS_P1;PMS_P2;Temp;Humidity;BMP_temperature;BMP_pressure;BME280_temperature;BME280_humidity;BME280_pressure;Samples;Min_cycle;Max_cycle;Signal;HPM_P1;HPM_P2
2023/02/07 00:00:50;;;;;;;6.07;5.00;;;4.90;99.90;;;;;;5050746;28;20218;-74
2023/02/07 00:03:15;;;;;;;6.13;5.00;;;4.90;99.90;;;;;;5074647;28;20186;-73
2023/02/07 00:05:41;;;;;;;7.90;5.53;;;4.90;99.90;;;;;;5068944;28;20251;-73
2023/02/07 00:08:07;;;;;;;7.83;5.77;;;4.90;99.90;;;;;;5067870;28;20187;-73
2023/02/07 00:10:33;;;;;;;6.67;5.00;;;4.90;99.90;;;;;;5070647;28;20217;-73
2023/02/07 00:12:59;;;;;;;7.30;5.80;;;4.90;99.90;;;;;;5072476;28;20441;-74
2023/02/07 00:15:28;;;;;;;7.83;5.20;;;4.90;99.90;;;;;;5071470;28;20804;-74
2023/02/07 00:17:54;;;;;;;7.00;5.90;;;4.90;99.90;;;;;;5050029;28;20186;-72
2023/02/07 00:20:20;;;;;;;6.70;5.13;;;4.80;99.90;;;;;;5073128;28;20501;-73
2023/02/07 00:22:45;;;;;;;10.50;4.90;;;4.80;99.90;;;;;;5078719;28;20230;-73
2023/02/07 00:25:11;;;;;;;6.43;5.53;;;4.80;99.90;;;;;;5073455;28;20221;-72
2023/02/07 00:27:37;;;;;;;7.10;5.43;;;4.90;99.90;;;;;;5075423;28;20259;-72
2023/02/07 00:30:04;;;;;;;6.47;5.80;;;4.80;99.90;;;;;;5077759;28;20764;-72
2023/02/07 00:32:31;;;;;;;7.03;5.37;;;4.80;99.90;;;;;;5077412;28;20459;-72
2023/02/07 00:34:57;;;;;;;6.80;5.10;;;4.80;99.90;;;;;;5074713;28;20548;-72
2023/02/07 00:37:23;;;;;;;11.60;6.43;;;4.80;99.90;;;;;;5076988;28;20455;-72
2023/02/07 00:39:48;;;;;;;8.93;6.33;;;4.80;99.90;;;;;;5080127;28;21935;-72
2023/02/07 00:42:14;;;;;;;7.90;5.90;;;4.80;99.90;;;;;;5074417;28;20198;-72
2023/02/07 00:44:39;;;;;;;7.70;5.77;;;4.80;99.90;;;;;;5081155;28;20215;-73
2023/02/07 00:47:05;;;;;;;7.30;5.80;;;4.70;99.90;;;;;;5081159;28;20293;-73
2023/02/07 00:49:31;;;;;;;7.33;5.50;;;4.80;99.90;;;;;;5078823;28;20215;-71
2023/02/07 00:51:56;;;;;;;7.80;6.57;;;4.80;99.90;;;;;;5083148;28;20248;-73
2023/02/07 00:54:22;;;;;;;7.70;5.80;;;4.80;99.90;;;;;;5085995;28;20477;-73
2023/02/07 00:56:48;;;;;;;8.13;6.03;;;4.70;99.90;;;;;;5079233;28;20676;-73
2023/02/07 00:59:13;;;;;;;9.13;5.80;;;4.70;99.90;;;;;;5082009;28;20187;-73
2023/02/07 01:01:39;;;;;;;9.87;6.40;;;4.70;99.90;;;;;;5079800;28;20187;-73
2023/02/07 01:04:04;;;;;;;7.03;5.97;;;4.70;99.90;;;;;;5079297;28;20584;-73
2023/02/07 01:06:32;;;;;;;8.77;5.90;;;4.70;99.90;;;;;;5065435;28;20226;-73
2023/02/07 01:08:59;;;;;;;6.57;5.87;;;4.70;99.90;;;;;;5077785;28;20205;-73
2023/02/07 01:11:26;;;;;;;8.23;5.87;;;4.70;99.90;;;;;;5077904;28;20448;-73
2023/02/07 01:13:51;;;;;;;7.17;5.83;;;4.70;99.90;;;;;;5056367;28;20789;-73
2023/02/07 01:16:26;;;;;;;8.60;6.87;;;4.70;99.90;;;;;;5079361;28;20463;-73
2023/02/07 01:18:52;;;;;;;7.93;6.43;;;4.70;99.90;;;;;;5074462;28;20337;-72
2023/02/07 01:21:20;;;;;;;7.77;6.23;;;4.60;99.90;;;;;;5080060;28;20539;-72
2023/02/07 01:23:46;;;;;;;9.23;6.40;;;4.60;99.90;;;;;;5076634;28;20449;-72
2023/02/07 01:26:11;;;;;;;10.57;6.20;;;4.60;99.90;;;;;;5077020;28;20490;-72
2023/02/07 01:28:37;;;;;;;8.43;6.33;;;4.60;99.90;;;;;;5076588;28;20445;-72
2023/02/07 01:31:11;;;;;;;7.50;6.70;;;4.50;99.90;;;;;;5077549;28;20179;-72
2023/02/07 01:33:37;;;;;;;7.30;6.00;;;4.60;99.90;;;;;;5075759;28;20303;-72
2023/02/07 01:36:08;;;;;;;6.70;5.43;;;4.50;99.90;;;;;;5076924;28;20456;-72
2023/02/07 01:38:33;;;;;;;7.00;5.97;;;4.50;99.90;;;;;;5077369;28;20524;-73
2023/02/07 01:40:59;;;;;;;7.77;6.03;;;4.50;99.90;;;;;;5078107;28;20973;-73
2023/02/07 01:43:25;;;;;;;8.80;6.30;;;4.50;99.90;;;;;;5077433;28;20267;-73
2023/02/07 01:45:51;;;;;;;10.33;6.80;;;4.50;99.90;;;;;;5067310;28;20233;-73
2023/02/07 01:48:22;;;;;;;10.20;7.40;;;4.40;99.90;;;;;;5077027;28;20445;-73
2023/02/07 01:50:50;;;;;;;8.43;6.10;;;4.40;99.90;;;;;;5076425;28;20475;-73
2023/02/07 01:53:20;;;;;;;8.83;6.50;;;4.40;99.90;;;;;;5071886;28;21070;-73
2023/02/07 01:55:48;;;;;;;8.67;6.87;;;4.40;99.90;;;;;;5070364;28;20464;-73
2023/02/07 01:58:15;;;;;;;12.40;7.57;;;4.30;99.90;;;;;;5070172;28;20445;-73
2023/02/07 02:00:41;;;;;;;8.53;6.50;;;4.30;99.90;;;;;;5065765;28;20445;-73
2023/02/07 02:03:06;;;;;;;9.27;6.70;;;4.20;99.90;;;;;;5075128;28;20813;-73
2023/02/07 02:05:34;;;;;;;8.47;6.00;;;4.20;99.90;;;;;;5065810;28;20520;-73
2023/02/07 02:08:00;;;;;;;9.03;6.37;;;4.20;99.90;;;;;;5070433;28;20186;-73
2023/02/07 02:10:44;;;;;;;9.20;6.87;;;4.20;99.90;;;;;;5067642;28;20483;-73
2023/02/07 02:13:25;;;;;;;8.40;6.07;;;4.20;99.90;;;;;;5055714;28;20613;-73
2023/02/07 02:16:25;;;;;;;7.63;5.70;;;4.10;99.90;;;;;;5069673;28;20460;-73
2023/02/07 02:19:20;;;;;;;9.30;6.60;;;4.20;99.90;;;;;;5069789;28;20428;-73
2023/02/07 02:22:03;;;;;;;10.70;7.37;;;4.10;99.90;;;;;;5072055;28;20432;-73
2023/02/07 02:25:01;;;;;;;10.60;7.07;;;4.10;99.90;;;;;;5078003;28;20428;-72
2023/02/07 02:28:08;;;;;;;9.57;6.50;;;4.10;99.90;;;;;;5066668;28;20856;-73
2023/02/07 02:31:16;;;;;;;8.80;6.73;;;4.10;99.90;;;;;;5034866;28;20564;-73
2023/02/07 02:33:56;;;;;;;11.40;8.10;;;4.10;99.90;;;;;;5075975;28;20513;-73
2023/02/07 02:36:50;;;;;;;14.33;7.77;;;4.00;99.90;;;;;;5076931;28;20813;-72
2023/02/07 02:40:01;;;;;;;12.80;7.30;;;4.00;99.90;;;;;;5077782;28;20435;-73
2023/02/07 02:42:44;;;;;;;12.57;7.10;;;4.00;99.90;;;;;;5058682;28;20440;-73
2023/02/07 02:45:24;;;;;;;9.47;7.00;;;4.00;99.90;;;;;;5072934;28;21656;-73
2023/02/07 02:47:51;;;;;;;9.77;7.20;;;3.90;99.90;;;;;;5070073;28;20452;-73
2023/02/07 02:50:28;;;;;;;9.70;7.47;;;3.90;99.90;;;;;;5072947;28;20537;-73
2023/02/07 02:52:54;;;;;;;9.23;7.37;;;3.90;99.90;;;;;;5073101;28;20459;-72
2023/02/07 02:55:42;;;;;;;10.30;7.80;;;3.80;99.90;;;;;;5070310;28;20969;-72
2023/02/07 02:58:14;;;;;;;9.67;7.63;;;3.80;99.90;;;;;;5072003;28;20448;-72
2023/02/07 03:01:04;;;;;;;11.87;9.07;;;3.80;99.90;;;;;;5071759;28;20440;-72
2023/02/07 03:03:33;;;;;;;11.23;8.70;;;3.80;99.90;;;;;;5056953;28;20436;-73
2023/02/07 03:06:11;;;;;;;12.70;8.93;;;3.80;99.90;;;;;;5072782;28;21243;-72
2023/02/07 03:09:13;;;;;;;12.03;8.70;;;3.80;99.90;;;;;;5070682;28;20440;-73
2023/02/07 03:11:55;;;;;;;14.27;7.43;;;3.70;99.90;;;;;;5075489;28;20428;-72
2023/02/07 03:14:36;;;;;;;12.00;9.20;;;3.70;99.90;;;;;;5071456;28;20654;-73
2023/02/07 03:17:17;;;;;;;11.23;8.40;;;3.70;99.90;;;;;;5074463;28;20471;-72
2023/02/07 03:19:49;;;;;;;9.97;7.60;;;3.60;99.90;;;;;;5072245;28;20532;-72
2023/02/07 03:22:18;;;;;;;13.17;8.93;;;3.50;99.90;;;;;;5075074;28;20874;-72
2023/02/07 03:24:48;;;;;;;13.33;8.83;;;3.50;99.90;;;;;;5073554;28;20809;-73
2023/02/07 03:27:17;;;;;;;10.10;8.33;;;3.50;99.90;;;;;;5075232;28;20452;-73
2023/02/07 03:29:46;;;;;;;12.53;9.13;;;3.50;99.90;;;;;;5071730;28;20503;-73
2023/02/07 03:32:13;;;;;;;14.23;9.00;;;3.40;99.90;;;;;;5072460;28;20433;-73
2023/02/07 03:35:14;;;;;;;13.20;8.00;;;3.40;99.90;;;;;;5073675;28;20436;-72
2023/02/07 03:37:53;;;;;;;14.70;8.47;;;3.40;99.90;;;;;;5070628;28;20444;-72
2023/02/07 03:40:19;;;;;;;13.90;9.00;;;3.40;99.90;;;;;;5075043;28;20436;-73
2023/02/07 03:42:47;;;;;;;18.27;9.53;;;3.40;99.90;;;;;;5073397;28;20436;-73
2023/02/07 03:45:16;;;;;;;16.67;9.80;;;3.40;99.90;;;;;;5071476;28;20442;-73
2023/02/07 03:47:42;;;;;;;12.00;8.67;;;3.50;99.90;;;;;;5071133;28;20996;-73
2023/02/07 03:50:07;;;;;;;12.47;9.70;;;3.40;99.90;;;;;;5070920;28;20460;-73
2023/02/07 03:52:33;;;;;;;13.50;9.70;;;3.50;99.90;;;;;;5074991;28;20253;-73
2023/02/07 03:54:59;;;;;;;13.17;9.30;;;3.50;99.90;;;;;;5071070;28;20428;-73
2023/02/07 03:57:24;;;;;;;12.90;9.37;;;3.40;99.90;;;;;;5074227;28;20582;-72
2023/02/07 03:59:50;;;;;;;19.97;10.50;;;3.40;99.90;;;;;;5073968;28;20194;-73
2023/02/07 04:02:15;;;;;;;12.53;9.67;;;3.50;99.90;;;;;;5076745;28;20216;-73
2023/02/07 04:04:41;;;;;;;12.13;9.80;;;3.40;99.90;;;;;;5070453;28;20186;-73
2023/02/07 04:07:07;;;;;;;14.07;11.40;;;3.40;99.90;;;;;;5074190;28;20230;-73
2023/02/07 04:09:32;;;;;;;14.73;10.27;;;3.40;99.90;;;;;;5070935;28;20198;-73
2023/02/07 04:11:58;;;;;;;16.13;10.47;;;3.30;99.90;;;;;;5070719;28;20301;-74
2023/02/07 04:14:24;;;;;;;16.03;11.30;;;3.30;99.90;;;;;;5072443;28;20184;-74
2023/02/07 04:16:50;;;;;;;15.33;11.60;;;3.30;99.90;;;;;;5075434;28;20210;-73
2023/02/07 04:19:16;;;;;;;17.00;10.70;;;3.30;99.90;;;;;;5074641;28;20609;-74
2023/02/07 04:21:41;;;;;;;14.53;10.83;;;3.20;99.90;;;;;;5070495;28;20189;-73
2023/02/07 04:24:08;;;;;;;15.07;11.30;;;3.20;99.90;;;;;;5074293;28;20433;-73
2023/02/07 04:26:34;;;;;;;16.23;11.10;;;3.20;99.90;;;;;;5075714;28;20202;-73
2023/02/07 04:28:59;;;;;;;20.80;11.60;;;3.20;99.90;;;;;;5072999;28;21215;-72
2023/02/07 04:31:25;;;;;;;14.90;11.93;;;3.20;99.90;;;;;;5076770;28;20523;-72
2023/02/07 04:33:51;;;;;;;18.30;11.90;;;3.20;99.90;;;;;;5051646;28;20308;-72
2023/02/07 04:36:16;;;;;;;17.40;11.77;;;3.10;99.90;;;;;;5076682;28;20206;-72
2023/02/07 04:38:42;;;;;;;15.40;11.77;;;3.10;99.90;;;;;;5071865;28;20248;-72
2023/02/07 04:41:08;;;;;;;18.70;11.83;;;3.10;99.90;;;;;;5074381;28;20187;-72
2023/02/07 04:43:35;;;;;;;16.13;11.87;;;3.10;99.90;;;;;;5072893;28;20897;-73
2023/02/07 04:46:02;;;;;;;17.20;12.47;;;3.10;99.90;;;;;;5070971;28;21184;-73
2023/02/07 04:48:28;;;;;;;18.57;12.53;;;3.10;99.90;;;;;;5073480;28;20460;-72
2023/02/07 04:50:53;;;;;;;18.50;12.20;;;3.00;99.90;;;;;;5073098;28;20499;-72
2023/02/07 04:53:19;;;;;;;19.03;12.10;;;3.00;99.90;;;;;;5074147;28;20261;-72
2023/02/07 04:55:49;;;;;;;12.40;10.30;;;3.00;99.90;;;;;;5072677;28;20282;-73
2023/02/07 04:58:15;;;;;;;15.80;12.10;;;3.10;99.90;;;;;;5077540;28;20433;-73
2023/02/07 05:00:40;;;;;;;16.40;11.80;;;3.10;99.90;;;;;;5073615;28;20444;-73
2023/02/07 05:03:06;;;;;;;21.80;12.10;;;3.00;99.90;;;;;;5070875;28;20179;-73
2023/02/07 05:05:31;;;;;;;15.07;12.77;;;3.00;99.90;;;;;;5070614;28;20190;-73
2023/02/07 05:07:57;;;;;;;15.53;12.77;;;3.00;99.90;;;;;;5077029;28;20265;-72
2023/02/07 05:10:23;;;;;;;21.23;14.27;;;3.00;99.90;;;;;;5076089;28;20206;-72
2023/02/07 05:12:48;;;;;;;16.53;12.73;;;3.00;99.90;;;;;;5077689;28;20263;-73
2023/02/07 05:15:14;;;;;;;16.37;12.93;;;3.00;99.90;;;;;;5076569;28;20195;-72
2023/02/07 05:17:40;;;;;;;14.70;11.20;;;2.90;99.90;;;;;;5076528;28;20736;-71
2023/02/07 05:20:06;;;;;;;16.97;12.30;;;3.00;99.90;;;;;;5073071;28;20450;-71
2023/02/07 05:22:32;;;;;;;17.30;12.13;;;3.00;99.90;;;;;;5076456;28;20581;-72
2023/02/07 05:24:58;;;;;;;16.50;11.30;;;2.90;99.90;;;;;;5074347;28;20443;-72
2023/02/07 05:27:23;;;;;;;18.10;13.70;;;2.90;99.90;;;;;;5078414;28;20211;-72
2023/02/07 05:29:49;;;;;;;17.60;12.17;;;2.90;99.90;;;;;;5076222;28;20313;-72
2023/02/07 05:35:00;;;;;;;17.10;11.87;;;2.90;99.90;;;;;;5075611;28;20529;-72
2023/02/07 05:37:26;;;;;;;18.20;13.33;;;2.90;99.90;;;;;;5056672;28;20471;-71
2023/02/07 05:39:51;;;;;;;18.73;13.30;;;2.80;99.90;;;;;;5071992;28;20329;-71
2023/02/07 05:42:17;;;;;;;16.00;12.20;;;2.80;99.90;;;;;;5076829;28;21261;-71
2023/02/07 05:44:43;;;;;;;18.53;12.90;;;2.80;99.90;;;;;;5075284;28;20770;-71
2023/02/07 05:47:09;;;;;;;16.53;12.17;;;2.80;99.90;;;;;;5058292;28;20210;-71
2023/02/07 05:49:34;;;;;;;13.20;10.97;;;2.80;99.90;;;;;;5075866;28;21207;-71
2023/02/07 05:52:00;;;;;;;18.20;12.50;;;2.80;99.90;;;;;;5072246;28;20563;-71
2023/02/07 05:54:25;;;;;;;16.20;12.53;;;2.80;99.90;;;;;;5073053;28;20179;-71
2023/02/07 05:56:51;;;;;;;16.33;13.50;;;2.80;99.90;;;;;;5073443;28;20289;-71
2023/02/07 05:59:16;;;;;;;18.90;12.70;;;2.80;99.90;;;;;;5077146;28;20202;-71
2023/02/07 06:01:42;;;;;;;16.43;12.30;;;2.70;99.90;;;;;;5076250;28;20189;-71
2023/02/07 06:04:07;;;;;;;17.47;13.50;;;2.70;99.90;;;;;;5071304;28;20273;-71
2023/02/07 06:06:33;;;;;;;22.57;13.97;;;2.70;99.90;;;;;;5075067;28;20210;-72
2023/02/07 06:08:59;;;;;;;18.73;12.60;;;2.70;99.90;;;;;;5076252;28;20277;-71
2023/02/07 06:11:24;;;;;;;20.67;14.13;;;2.70;99.90;;;;;;5076688;28;20508;-71
2023/02/07 06:13:50;;;;;;;19.53;12.10;;;2.70;99.90;;;;;;5072543;28;20187;-71
2023/02/07 06:16:16;;;;;;;25.27;12.63;;;2.70;99.90;;;;;;5077184;28;20206;-71
2023/02/07 06:18:41;;;;;;;18.30;12.87;;;2.70;99.90;;;;;;5075453;28;20174;-72
2023/02/07 06:21:07;;;;;;;18.57;13.27;;;2.70;99.90;;;;;;5076852;28;20245;-72
2023/02/07 06:23:33;;;;;;;16.90;12.10;;;2.60;99.90;;;;;;5074089;28;20214;-71
2023/02/07 06:25:58;;;;;;;16.87;12.97;;;2.60;99.90;;;;;;5075732;28;20897;-71
2023/02/07 06:28:24;;;;;;;17.30;13.53;;;2.60;99.90;;;;;;5075777;28;20194;-72
2023/02/07 06:30:50;;;;;;;15.73;12.40;;;2.60;99.90;;;;;;5075515;28;20723;-71
2023/02/07 06:33:16;;;;;;;20.47;13.27;;;2.70;99.90;;;;;;5077094;28;20690;-72
2023/02/07 06:35:46;;;;;;;16.67;12.83;;;2.70;99.90;;;;;;5076490;28;20431;-71
2023/02/07 06:38:13;;;;;;;15.50;11.70;;;2.60;99.90;;;;;;5057403;28;20178;-72
2023/02/07 06:40:38;;;;;;;17.70;12.50;;;2.60;99.90;;;;;;5056063;28;20506;-71
2023/02/07 06:43:04;;;;;;;18.07;12.23;;;2.60;99.90;;;;;;5076002;28;20444;-71
2023/02/07 06:45:29;;;;;;;15.10;11.53;;;2.60;99.90;;;;;;5074822;28;20726;-71
2023/02/07 06:47:55;;;;;;;19.50;13.17;;;2.50;99.90;;;;;;5070641;28;20202;-72
2023/02/07 06:50:21;;;;;;;18.77;12.30;;;2.50;99.90;;;;;;5074625;28;20584;-72
2023/02/07 06:52:46;;;;;;;19.00;13.77;;;2.50;99.90;;;;;;5074515;28;20583;-71
2023/02/07 06:55:12;;;;;;;20.90;14.20;;;2.50;99.90;;;;;;5074235;28;20461;-71
2023/02/07 06:57:37;;;;;;;19.90;12.47;;;2.50;99.90;;;;;;5075354;28;20233;-71
2023/02/07 07:00:04;;;;;;;18.23;13.30;;;2.50;99.90;;;;;;5071806;28;20190;-72
2023/02/07 07:02:30;;;;;;;19.80;13.00;;;2.50;99.90;;;;;;5073211;28;20243;-71
2023/02/07 07:04:57;;;;;;;24.93;14.60;;;2.50;99.90;;;;;;5070521;28;20436;-71
2023/02/07 07:07:22;;;;;;;19.50;12.27;;;2.50;99.90;;;;;;5074850;28;20460;-70
2023/02/07 07:09:48;;;;;;;18.80;12.50;;;2.40;99.90;;;;;;5056637;28;20472;-71
2023/02/07 07:12:14;;;;;;;17.93;13.50;;;2.40;99.90;;;;;;5073549;28;20214;-71
2023/02/07 07:14:39;;;;;;;19.23;12.80;;;2.40;99.90;;;;;;5066001;28;20183;-71
2023/02/07 07:17:05;;;;;;;18.10;11.93;;;2.40;99.90;;;;;;5075513;28;20555;-71
2023/02/07 07:19:30;;;;;;;18.73;13.57;;;2.40;99.90;;;;;;5075517;28;20208;-71
2023/02/07 07:21:57;;;;;;;20.37;14.57;;;2.30;99.90;;;;;;5068690;28;20191;-71
2023/02/07 07:24:23;;;;;;;17.33;12.13;;;2.30;99.90;;;;;;5077088;28;20196;-71
2023/02/07 07:26:49;;;;;;;20.60;12.97;;;2.40;99.90;;;;;;5066997;28;20842;-71
2023/02/07 07:29:15;;;;;;;19.67;13.57;;;2.40;99.90;;;;;;5070739;28;20563;-71
2023/02/07 07:31:41;;;;;;;18.67;13.97;;;2.40;99.90;;;;;;5075110;28;20189;-71
2023/02/07 07:34:07;;;;;;;18.07;13.40;;;2.40;99.90;;;;;;5072709;28;20428;-70
2023/02/07 07:36:32;;;;;;;21.03;13.90;;;2.40;99.90;;;;;;5070538;28;20377;-71
2023/02/07 07:38:58;;;;;;;18.67;12.90;;;2.40;99.90;;;;;;5068472;28;20237;-71
2023/02/07 07:41:23;;;;;;;17.77;12.73;;;2.40;99.90;;;;;;5074995;28;20181;-71
2023/02/07 07:43:49;;;;;;;21.10;13.00;;;2.30;99.90;;;;;;5071249;28;20259;-71
2023/02/07 07:46:14;;;;;;;20.10;13.43;;;2.30;99.90;;;;;;5072397;28;20292;-71
2023/02/07 07:48:40;;;;;;;17.87;13.40;;;2.30;99.90;;;;;;5074283;28;20189;-71
2023/02/07 07:51:05;;;;;;;18.73;13.97;;;2.30;99.90;;;;;;5054282;28;20214;-71
2023/02/07 07:53:31;;;;;;;43.63;28.20;;;2.30;99.90;;;;;;5075586;28;20193;-71
2023/02/07 07:55:57;;;;;;;22.23;13.77;;;2.30;99.90;;;;;;5072256;28;20205;-71
2023/02/07 07:58:24;;;;;;;27.57;16.67;;;2.30;99.90;;;;;;5043386;28;20369;-71
2023/02/07 08:00:50;;;;;;;25.07;15.60;;;2.40;99.90;;;;;;5069851;28;20452;-72
2023/02/07 08:03:18;;;;;;;17.00;13.47;;;2.40;99.90;;;;;;5060680;28;20451;-70
2023/02/07 08:05:44;;;;;;;26.37;14.50;;;2.40;99.90;;;;;;5069968;28;20448;-69
2023/02/07 08:08:10;;;;;;;21.73;13.87;;;2.50;99.90;;;;;;5069242;28;20506;-71
2023/02/07 08:10:36;;;;;;;17.37;13.70;;;2.50;99.90;;;;;;5069956;28;20505;-69
2023/02/07 08:13:01;;;;;;;18.90;13.70;;;2.50;99.90;;;;;;5071763;28;20544;-69
2023/02/07 08:15:27;;;;;;;21.20;12.63;;;2.50;99.90;;;;;;5070108;28;20213;-71
2023/02/07 08:17:53;;;;;;;19.40;13.10;;;2.60;99.90;;;;;;5067908;28;20271;-71
2023/02/07 08:20:19;;;;;;;16.27;12.30;;;2.60;99.90;;;;;;5074023;28;21486;-69
2023/02/07 08:22:44;;;;;;;21.37;13.73;;;2.60;99.90;;;;;;5072090;28;20189;-72
2023/02/07 08:25:10;;;;;;;20.83;13.20;;;2.60;99.90;;;;;;5074849;28;20596;-68
2023/02/07 08:27:36;;;;;;;17.70;12.80;;;2.70;99.90;;;;;;5073771;28;20440;-69
2023/02/07 08:30:03;;;;;;;17.43;13.33;;;2.70;99.90;;;;;;5072376;28;20297;-70
2023/02/07 08:32:29;;;;;;;17.03;12.20;;;2.70;99.90;;;;;;5070317;28;20187;-69
2023/02/07 08:34:54;;;;;;;16.57;12.40;;;2.70;99.90;;;;;;5072717;28;20443;-69
2023/02/07 08:37:21;;;;;;;15.70;12.20;;;2.80;99.90;;;;;;5070308;28;20255;-69
2023/02/07 08:39:51;;;;;;;19.57;13.07;;;2.80;99.90;;;;;;5068947;28;20189;-68
2023/02/07 08:42:19;;;;;;;15.80;13.10;;;2.80;99.90;;;;;;5079859;28;21108;-67
2023/02/07 08:44:49;;;;;;;21.43;12.47;;;2.80;99.90;;;;;;5076266;28;20528;-68
2023/02/07 08:47:16;;;;;;;16.90;11.37;;;2.80;99.90;;;;;;5071360;28;21228;-67
2023/02/07 08:49:42;;;;;;;16.60;13.80;;;2.80;99.90;;;;;;5074946;28;20464;-68
2023/02/07 08:52:12;;;;;;;21.77;11.77;;;2.80;99.90;;;;;;5060729;28;20448;-69
2023/02/07 08:54:37;;;;;;;21.13;13.03;;;2.90;99.90;;;;;;5072536;28;20436;-71
2023/02/07 08:57:03;;;;;;;16.57;11.37;;;2.80;99.90;;;;;;5073976;28;20483;-70
2023/02/07 08:59:29;;;;;;;18.60;11.67;;;2.90;99.90;;;;;;5074506;28;21369;-69
2023/02/07 09:01:54;;;;;;;19.70;12.40;;;2.90;99.90;;;;;;5072968;28;20444;-68
2023/02/07 09:04:20;;;;;;;19.57;12.50;;;2.90;99.90;;;;;;5075904;28;20186;-68
2023/02/07 09:06:46;;;;;;;15.97;12.50;;;2.90;99.90;;;;;;5075158;28;20253;-68
2023/02/07 09:09:11;;;;;;;17.03;11.73;;;2.90;99.90;;;;;;5075775;28;21117;-69
2023/02/07 09:11:37;;;;;;;18.80;13.03;;;3.00;99.90;;;;;;5077239;28;20567;-69
2023/02/07 09:14:02;;;;;;;17.67;12.30;;;3.00;99.90;;;;;;5074590;28;20260;-69
2023/02/07 09:16:28;;;;;;;19.97;12.50;;;3.00;99.90;;;;;;5076400;28;20202;-70
2023/02/07 09:18:55;;;;;;;15.60;11.53;;;3.00;99.90;;;;;;5072864;28;20194;-67
2023/02/07 09:21:21;;;;;;;20.50;12.20;;;3.00;99.90;;;;;;5073436;28;20445;-70
2023/02/07 09:23:46;;;;;;;23.27;12.47;;;3.10;99.90;;;;;;5055806;28;20440;-71
2023/02/07 09:26:20;;;;;;;15.80;12.03;;;3.10;99.90;;;;;;5071151;28;21422;-72
2023/02/07 09:28:46;;;;;;;19.70;11.80;;;3.10;99.90;;;;;;5070830;28;20199;-69
2023/02/07 09:31:13;;;;;;;19.53;11.70;;;3.10;99.90;;;;;;5074875;28;20468;-71
2023/02/07 09:33:39;;;;;;;21.67;13.13;;;3.10;99.90;;;;;;5075901;28;20210;-68
2023/02/07 09:36:14;;;;;;;14.43;11.13;;;3.20;99.90;;;;;;5075560;28;20538;-67
2023/02/07 09:38:39;;;;;;;17.43;11.80;;;3.20;99.90;;;;;;5071630;28;20623;-68
2023/02/07 09:41:18;;;;;;;17.97;12.73;;;3.20;99.90;;;;;;5073265;28;20834;-69
2023/02/07 09:44:05;;;;;;;17.40;12.83;;;3.20;99.90;;;;;;5074185;28;20187;-76
2023/02/07 09:46:50;;;;;;;17.80;13.07;;;3.20;99.90;;;;;;5070060;28;20453;-71
2023/02/07 09:49:34;;;;;;;14.40;11.57;;;3.30;99.90;;;;;;5074344;28;20460;-74
2023/02/07 09:52:02;;;;;;;19.20;12.20;;;3.30;99.90;;;;;;5072149;28;20613;-73
2023/02/07 09:54:42;;;;;;;16.60;12.10;;;3.30;99.90;;;;;;5072324;28;20451;-72
2023/02/07 09:57:16;;;;;;;17.90;11.47;;;3.30;99.90;;;;;;5050320;28;20460;-74
2023/02/07 09:59:58;;;;;;;16.33;11.70;;;3.40;99.90;;;;;;5070024;28;20432;-73
2023/02/07 10:02:40;;;;;;;16.23;11.27;;;3.40;99.90;;;;;;5077694;28;20412;-71
2023/02/07 10:05:19;;;;;;;15.90;11.37;;;3.50;99.90;;;;;;5072477;28;20480;-73
2023/02/07 10:07:46;;;;;;;18.33;11.20;;;3.50;99.90;;;;;;5072331;28;20460;-70
2023/02/07 10:10:18;;;;;;;16.20;11.60;;;3.50;99.90;;;;;;5065916;28;20464;-73
2023/02/07 10:13:02;;;;;;;15.10;10.60;;;3.50;99.90;;;;;;5053609;28;20441;-71
2023/02/07 10:15:40;;;;;;;15.47;11.30;;;3.50;99.90;;;;;;5071838;28;20588;-71
2023/02/07 10:18:17;;;;;;;16.17;11.17;;;3.60;99.90;;;;;;5075960;28;20487;-71
2023/02/07 10:21:03;;;;;;;15.13;12.27;;;3.70;99.90;;;;;;5069081;28;20455;-68
2023/02/07 10:23:45;;;;;;;17.13;12.17;;;3.70;99.90;;;;;;5056551;28;20441;-71
2023/02/07 10:26:36;;;;;;;14.23;11.10;;;3.70;99.90;;;;;;5055014;28;21167;-72
2023/02/07 10:29:27;;;;;;;14.73;11.27;;;3.70;99.90;;;;;;5069459;28;20436;-72
2023/02/07 10:31:58;;;;;;;16.73;10.97;;;3.80;99.90;;;;;;5069435;28;20433;-73
2023/02/07 10:34:29;;;;;;;14.87;10.90;;;3.80;99.90;;;;;;5072689;28;20519;-74
2023/02/07 10:36:57;;;;;;;20.23;12.33;;;3.80;99.90;;;;;;5056714;28;20457;-73
2023/02/07 10:39:34;;;;;;;18.90;10.97;;;3.90;99.90;;;;;;5077472;28;20475;-73
2023/02/07 10:42:00;;;;;;;16.93;11.70;;;4.00;99.90;;;;;;5055345;28;20948;-73
2023/02/07 10:44:28;;;;;;;15.57;10.90;;;4.00;99.90;;;;;;5071093;28;20443;-74
2023/02/07 10:46:59;;;;;;;14.87;10.80;;;4.10;99.90;;;;;;5072493;28;20237;-74
2023/02/07 10:49:28;;;;;;;14.00;10.60;;;4.10;99.90;;;;;;5054357;28;20468;-74
2023/02/07 10:52:27;;;;;;;14.27;11.40;;;4.10;99.90;;;;;;5055398;28;20458;-72
2023/02/07 10:54:59;;;;;;;17.50;11.00;;;4.10;99.90;;;;;;5056766;28;20956;-71
2023/02/07 10:57:26;;;;;;;15.47;12.03;;;4.20;99.90;;;;;;5069929;28;20835;-71
2023/02/07 11:00:16;;;;;;;14.40;10.77;;;4.20;99.90;;;;;;5072916;28;20431;-72
2023/02/07 11:02:48;;;;;;;12.93;10.30;;;4.20;99.90;;;;;;5071989;28;20441;-71
2023/02/07 11:05:16;;;;;;;14.47;10.73;;;4.30;99.90;;;;;;5073861;28;20448;-73
2023/02/07 11:08:22;;;;;;;14.47;11.43;;;4.30;99.90;;;;;;5069275;28;20455;-74
2023/02/07 11:10:50;;;;;;;16.80;11.23;;;4.30;99.90;;;;;;5074835;28;20472;-72
2023/02/07 11:13:26;;;;;;;14.27;11.00;;;4.30;99.90;;;;;;5071081;28;20889;-73
2023/02/07 11:16:14;;;;;;;13.43;10.70;;;4.40;99.90;;;;;;5063605;28;20889;-72
2023/02/07 11:18:44;;;;;;;15.87;11.23;;;4.50;99.90;;;;;;5070371;28;20454;-74
2023/02/07 11:21:45;;;;;;;18.10;11.80;;;4.50;99.90;;;;;;5069256;28;20522;-73
2023/02/07 11:24:18;;;;;;;12.40;10.80;;;4.60;99.90;;;;;;5016106;28;20441;-73
2023/02/07 11:27:09;;;;;;;17.80;12.10;;;4.60;99.90;;;;;;5073265;28;21001;-73
2023/02/07 11:29:49;;;;;;;14.10;11.67;;;4.70;99.90;;;;;;5063175;28;20480;-72
2023/02/07 11:32:15;;;;;;;16.20;12.17;;;4.70;99.90;;;;;;5068078;28;20444;-71
2023/02/07 11:34:47;;;;;;;14.20;11.40;;;4.80;99.90;;;;;;5072422;28;20464;-72
2023/02/07 11:37:16;;;;;;;14.30;10.70;;;4.80;99.90;;;;;;5066086;28;20880;-70
2023/02/07 11:39:43;;;;;;;14.70;11.53;;;4.90;99.90;;;;;;5072676;28;21056;-72
2023/02/07 11:42:33;;;;;;;12.77;10.63;;;5.00;99.90;;;;;;5048319;28;20436;-72
2023/02/07 11:45:03;;;;;;;17.60;11.43;;;4.90;99.90;;;;;;5070226;28;20440;-72
2023/02/07 11:47:30;;;;;;;13.60;10.70;;;4.90;99.90;;;;;;5069648;28;20985;-71
2023/02/07 11:50:27;;;;;;;14.53;11.40;;;5.00;99.90;;;;;;5067624;28;20536;-73
2023/02/07 11:52:56;;;;;;;15.00;12.00;;;5.00;99.90;;;;;;5059944;28;20448;-73
2023/02/07 11:55:53;;;;;;;17.20;12.63;;;5.10;99.90;;;;;;5072867;28;20805;-73
2023/02/07 11:58:46;;;;;;;15.10;11.37;;;5.20;99.90;;;;;;5056216;28;21133;-73
2023/02/07 12:01:15;;;;;;;16.90;10.83;;;5.30;99.90;;;;;;5066149;28;21025;-73
2023/02/07 12:03:48;;;;;;;15.47;13.00;;;5.40;99.90;;;;;;5068062;28;20497;-73
2023/02/07 12:06:17;;;;;;;16.07;11.90;;;5.50;99.90;;;;;;5072910;28;20476;-73
2023/02/07 12:08:43;;;;;;;13.77;11.50;;;5.60;99.90;;;;;;5071578;28;20482;-73
2023/02/07 12:11:18;;;;;;;15.90;12.40;;;5.70;99.90;;;;;;5071372;28;20911;-73
2023/02/07 12:13:49;;;;;;;15.10;11.90;;;6.00;99.90;;;;;;5070778;28;20824;-73
2023/02/07 12:16:28;;;;;;;15.33;11.23;;;6.50;99.90;;;;;;5072921;28;20443;-72
2023/02/07 12:19:02;;;;;;;16.57;11.43;;;7.00;99.90;;;;;;5076165;28;20866;-72
2023/02/07 12:21:51;;;;;;;18.50;12.20;;;7.40;99.90;;;;;;5079290;28;21240;-72
2023/02/07 12:24:34;;;;;;;15.60;11.70;;;7.80;99.90;;;;;;5059964;28;20433;-72
2023/02/07 12:27:17;;;;;;;15.60;11.67;;;8.20;99.90;;;;;;5073402;28;20495;-73
2023/02/07 12:30:03;;;;;;;14.63;12.00;;;8.40;99.90;;;;;;5077976;28;20496;-72
2023/02/07 12:32:56;;;;;;;16.63;11.87;;;8.60;99.90;;;;;;5077608;28;20536;-73
2023/02/07 12:35:28;;;;;;;17.00;13.87;;;8.80;99.90;;;;;;5079433;28;20849;-73
2023/02/07 12:38:16;;;;;;;16.60;12.90;;;9.10;99.90;;;;;;5077323;28;20859;-72
2023/02/07 12:40:56;;;;;;;16.17;13.10;;;9.30;99.90;;;;;;5079981;28;20535;-74
2023/02/07 12:43:36;;;;;;;17.87;12.27;;;9.50;99.90;;;;;;5060388;28;20454;-75
2023/02/07 12:46:17;;;;;;;18.53;12.90;;;9.60;99.90;;;;;;5072596;28;21276;-74
2023/02/07 12:49:14;;;;;;;17.77;12.50;;;9.70;99.90;;;;;;5078967;28;20424;-76
2023/02/07 12:51:54;;;;;;;14.57;11.53;;;9.90;99.90;;;;;;5074588;28;20431;-75
2023/02/07 12:54:44;;;;;;;14.97;12.70;;;10.00;99.90;;;;;;5080264;28;20831;-74
2023/02/07 12:57:43;;;;;;;16.70;12.30;;;10.10;99.60;;;;;;5077075;28;21323;-75
2023/02/07 13:00:31;;;;;;;14.33;12.93;;;10.10;99.20;;;;;;5019520;28;20454;-71
2023/02/07 13:03:18;;;;;;;14.33;12.30;;;10.10;98.60;;;;;;5080513;28;20468;-69